createdAt,value
2017-06-30T00:00:39.158Z,0
2017-06-30T00:01:53.090Z,0
2017-06-30T00:03:41.277Z,0
2017-06-30T00:07:27.195Z,0
2017-06-30T00:08:25.775Z,0
2017-06-30T00:09:26.636Z,0
2017-06-30T00:10:24.986Z,0
2017-06-30T00:12:06.924Z,0
2017-06-30T00:14:34.703Z,0
2017-06-30T00:16:49.875Z,0
2017-06-30T00:18:47.572Z,0
2017-06-30T00:21:03.357Z,0
2017-06-30T00:22:49.235Z,0
2017-06-30T00:27:33.516Z,0
2017-06-30T00:29:01.602Z,0
2017-06-30T00:30:48.791Z,0
2017-06-30T00:31:33.757Z,0
2017-06-30T00:32:47.596Z,0
2017-06-30T00:34:01.319Z,0
2017-06-30T00:34:32.494Z,0
2017-06-30T00:35:33.087Z,0
2017-06-30T00:37:02.085Z,0
2017-06-30T00:37:50.694Z,0
2017-06-30T00:39:39.702Z,0
2017-06-30T00:42:38.222Z,0
2017-06-30T00:45:01.143Z,0
2017-06-30T00:46:04.155Z,0
2017-06-30T00:47:04.066Z,0
2017-06-30T00:49:01.078Z,0
2017-06-30T00:49:34.385Z,0
2017-06-30T00:52:02.035Z,0
2017-06-30T00:53:51.372Z,0
2017-06-30T00:57:03.248Z,0
2017-06-30T00:58:03.641Z,0
2017-06-30T00:58:50.289Z,0
2017-06-30T00:59:35.444Z,0
2017-06-30T01:00:49.647Z,0
2017-06-30T01:03:48.825Z,0
2017-06-30T01:04:35.011Z,0
2017-06-30T01:05:35.962Z,0
2017-06-30T01:07:16.686Z,0
2017-06-30T01:07:44.633Z,0
2017-06-30T01:08:43.608Z,0
2017-06-30T01:09:58.816Z,0
2017-06-30T01:10:44.393Z,0
2017-06-30T01:11:57.360Z,0
2017-06-30T01:15:57.700Z,0
2017-06-30T01:16:46.108Z,0
2017-06-30T01:17:43.265Z,0
2017-06-30T01:19:57.495Z,0
2017-06-30T01:24:58.569Z,0
2017-06-30T01:26:11.145Z,0
2017-06-30T01:27:25.129Z,0
2017-06-30T01:28:10.707Z,0
2017-06-30T01:28:57.896Z,0
2017-06-30T01:30:57.472Z,0
2017-06-30T01:32:53.441Z,0
2017-06-30T01:36:22.443Z,0
2017-06-30T01:36:54.289Z,0
2017-06-30T01:38:21.147Z,0
2017-06-30T01:38:53.131Z,0
2017-06-30T01:40:52.287Z,0
2017-06-30T01:42:05.776Z,0
2017-06-30T01:44:07.053Z,0
2017-06-30T01:46:53.000Z,0
2017-06-30T01:48:34.788Z,0
2017-06-30T01:49:17.335Z,0
2017-06-30T01:50:29.911Z,0
2017-06-30T01:52:02.895Z,0
2017-06-30T01:53:30.267Z,0
2017-06-30T01:56:02.929Z,0
2017-06-30T01:58:16.994Z,0
2017-06-30T02:01:31.565Z,0
2017-06-30T02:03:16.517Z,0
2017-06-30T02:05:16.354Z,0
2017-06-30T02:06:03.049Z,0
2017-06-30T02:07:03.242Z,0
2017-06-30T02:09:29.406Z,0
2017-06-30T02:10:17.200Z,0
2017-06-30T02:11:16.192Z,0
2017-06-30T02:15:16.991Z,0
2017-06-30T02:19:11.230Z,0
2017-06-30T02:22:33.229Z,0
2017-06-30T02:23:34.316Z,0
2017-06-30T02:25:20.084Z,0
2017-06-30T02:26:19.560Z,0
2017-06-30T02:27:47.658Z,0
2017-06-30T02:28:34.506Z,0
2017-06-30T02:30:19.188Z,0
2017-06-30T02:31:21.197Z,0
2017-06-30T02:32:33.972Z,0
2017-06-30T02:34:34.953Z,0
2017-06-30T02:35:32.728Z,0
2017-06-30T02:37:33.698Z,0
2017-06-30T02:39:21.347Z,0
2017-06-30T02:40:34.301Z,0
2017-06-30T02:41:36.457Z,0
2017-06-30T02:42:19.863Z,0
2017-06-30T02:43:34.872Z,0
2017-06-30T02:45:48.163Z,0
2017-06-30T02:47:48.047Z,4
2017-06-30T02:48:19.320Z,4
2017-06-30T02:49:36.749Z,0
2017-06-30T02:50:33.695Z,4
2017-06-30T02:51:32.872Z,4
2017-06-30T02:53:42.814Z,8
2017-06-30T02:54:42.589Z,8
2017-06-30T02:57:30.016Z,8
2017-06-30T02:58:43.127Z,8
2017-06-30T02:59:28.121Z,12
2017-06-30T03:01:44.307Z,16
2017-06-30T03:02:29.478Z,16
2017-06-30T03:03:27.232Z,24
2017-06-30T03:04:56.434Z,28
2017-06-30T03:05:44.023Z,32
2017-06-30T03:06:43.332Z,28
2017-06-30T03:07:27.774Z,36
2017-06-30T03:09:44.774Z,44
2017-06-30T03:11:37.442Z,48
2017-06-30T03:13:05.173Z,60
2017-06-30T03:13:36.393Z,64
2017-06-30T03:15:05.603Z,72
2017-06-30T03:16:37.606Z,84
2017-06-30T03:17:38.289Z,108
2017-06-30T03:20:49.833Z,104
2017-06-30T03:22:35.985Z,100
2017-06-30T03:25:03.973Z,124
2017-06-30T03:26:03.943Z,144
2017-06-30T03:26:50.543Z,148
2017-06-30T03:27:38.518Z,164
2017-06-30T03:28:36.504Z,172
2017-06-30T03:29:50.470Z,192
2017-06-30T03:30:50.883Z,216
2017-06-30T03:32:36.853Z,256
2017-06-30T03:33:51.096Z,280
2017-06-30T03:34:51.280Z,284
2017-06-30T03:36:03.984Z,284
2017-06-30T03:37:36.614Z,340
2017-06-30T03:38:37.792Z,400
2017-06-30T03:39:49.309Z,404
2017-06-30T03:40:37.170Z,396
2017-06-30T03:42:36.474Z,476
2017-06-30T03:50:04.572Z,864
2017-06-30T03:50:58.299Z,924
2017-06-30T03:52:04.801Z,1056
2017-06-30T03:54:51.544Z,1256
2017-06-30T03:55:51.068Z,1224
2017-06-30T03:56:49.643Z,1296
2017-06-30T03:58:04.300Z,1344
2017-06-30T03:59:51.417Z,1328
2017-06-30T04:01:36.181Z,1288
2017-06-30T04:04:50.592Z,1352
2017-06-30T04:06:49.696Z,1504
2017-06-30T04:08:39.364Z,1684
2017-06-30T04:10:50.902Z,4132
2017-06-30T04:16:01.122Z,5280
2017-06-30T04:16:44.891Z,5124
2017-06-30T04:17:43.665Z,5084
2017-06-30T04:19:43.845Z,5948
2017-06-30T04:20:43.832Z,5812
2017-06-30T04:23:12.201Z,5312
2017-06-30T04:23:44.995Z,5264
2017-06-30T04:24:44.781Z,4684
2017-06-30T04:25:45.265Z,4220
2017-06-30T04:26:44.554Z,4000
2017-06-30T04:27:46.328Z,4528
2017-06-30T04:29:43.491Z,4972
2017-06-30T04:30:57.480Z,4688
2017-06-30T04:35:20.778Z,4048
2017-06-30T04:36:22.163Z,4072
2017-06-30T04:37:09.467Z,4576
2017-06-30T04:38:20.937Z,5184
2017-06-30T04:39:21.523Z,4980
2017-06-30T04:40:34.594Z,5100
2017-06-30T04:42:21.264Z,5180
2017-06-30T04:44:15.807Z,5416
2017-06-30T04:45:17.251Z,5820
2017-06-30T04:48:16.802Z,5640
2017-06-30T04:49:16.118Z,7088
2017-06-30T04:50:43.703Z,8532
2017-06-30T04:53:30.284Z,9328
2017-06-30T04:55:30.444Z,7348
2017-06-30T04:56:30.397Z,8824
2017-06-30T04:57:46.423Z,10076
2017-06-30T04:58:17.107Z,9936
2017-06-30T05:00:30.179Z,8816
2017-06-30T05:01:29.535Z,10408
2017-06-30T05:02:44.748Z,10992
2017-06-30T05:07:40.008Z,10248
2017-06-30T05:08:38.991Z,10100
2017-06-30T05:14:02.673Z,10928
2017-06-30T05:14:33.038Z,10660
2017-06-30T05:15:35.257Z,9560
2017-06-30T05:16:36.747Z,10952
2017-06-30T05:22:01.544Z,9484
2017-06-30T05:22:48.593Z,9324
2017-06-30T05:26:48.682Z,17184
2017-06-30T05:28:03.276Z,18592
2017-06-30T05:28:36.215Z,17408
2017-06-30T05:32:02.825Z,15056
2017-06-30T05:32:48.382Z,17312
2017-06-30T05:33:48.371Z,15524
2017-06-30T05:36:33.708Z,13420
2017-06-30T05:38:02.712Z,14916
2017-06-30T05:40:47.459Z,13800
2017-06-30T05:44:10.775Z,16404
2017-06-30T05:46:55.522Z,17248
2017-06-30T05:47:42.307Z,17664
2017-06-30T05:48:56.495Z,16776
2017-06-30T05:52:11.057Z,18016
2017-06-30T05:53:56.009Z,22592
2017-06-30T05:54:43.592Z,23872
2017-06-30T05:58:42.896Z,26208
2017-06-30T06:01:56.858Z,41664
2017-06-30T06:02:44.317Z,43616
2017-06-30T06:03:43.630Z,50944
2017-06-30T06:04:29.790Z,37984
2017-06-30T06:07:39.094Z,68576
2017-06-30T06:08:50.806Z,42880
2017-06-30T06:10:37.582Z,50656
2017-06-30T06:12:37.160Z,46592
2017-06-30T06:13:51.337Z,43424
2017-06-30T06:16:36.895Z,49088
2017-06-30T06:18:37.879Z,59808
2017-06-30T06:19:38.674Z,59360
2017-06-30T06:20:51.713Z,32800
2017-06-30T06:21:52.046Z,38400
2017-06-30T06:22:36.106Z,44032
2017-06-30T06:23:38.411Z,63872
2017-06-30T06:24:22.784Z,53920
2017-06-30T06:26:04.989Z,34688
2017-06-30T06:26:22.970Z,31456
2017-06-30T06:28:36.957Z,65728
2017-06-30T06:29:39.826Z,39200
2017-06-30T06:32:05.519Z,51168
2017-06-30T06:32:50.490Z,34432
2017-06-30T06:33:37.351Z,55456
2017-06-30T06:34:50.873Z,43520
2017-06-30T06:35:38.887Z,29248
2017-06-30T06:37:46.917Z,78784
2017-06-30T06:39:00.599Z,77472
2017-06-30T06:39:32.177Z,75616
2017-06-30T06:41:00.972Z,77952
2017-06-30T06:41:46.562Z,78720
2017-06-30T06:43:47.603Z,19680
2017-06-30T06:44:46.323Z,75552
2017-06-30T06:46:14.926Z,78816
2017-06-30T06:46:33.113Z,66944
2017-06-30T06:47:46.698Z,77664
2017-06-30T06:50:33.291Z,79584
2017-06-30T06:51:33.054Z,45920
2017-06-30T06:53:01.233Z,42400
2017-06-30T06:54:55.485Z,81888
2017-06-30T06:56:56.826Z,80000
2017-06-30T07:01:04.474Z,21440
2017-06-30T07:06:04.014Z,68672
2017-06-30T07:10:23.711Z,71232
2017-06-30T07:11:22.702Z,100480
2017-06-30T07:13:37.886Z,29408
2017-06-30T07:15:32.121Z,107872
2017-06-30T07:18:59.783Z,107840
2017-06-30T07:19:47.640Z,116800
2017-06-30T07:20:46.367Z,95040
2017-06-30T07:21:45.137Z,113344
2017-06-30T07:22:45.128Z,109600
2017-06-30T07:24:00.543Z,112256
2017-06-30T07:24:31.910Z,117568
2017-06-30T07:26:00.521Z,105760
2017-06-30T07:27:45.879Z,110944
2017-06-30T07:28:59.673Z,113536
2017-06-30T07:29:59.464Z,80960
2017-06-30T07:30:46.868Z,60032
2017-06-30T07:31:45.848Z,55968
2017-06-30T07:33:00.239Z,64416
2017-06-30T07:34:00.700Z,99008
2017-06-30T07:36:00.615Z,119680
2017-06-30T07:36:45.808Z,105536
2017-06-30T07:39:46.177Z,83712
2017-06-30T07:41:45.155Z,104896
2017-06-30T07:46:59.313Z,91616
2017-06-30T07:48:00.515Z,86080
2017-06-30T07:49:56.458Z,80416
2017-06-30T07:51:36.646Z,77248
2017-06-30T07:51:55.425Z,93152
2017-06-30T07:52:54.625Z,115424
2017-06-30T07:54:08.418Z,69312
2017-06-30T07:56:54.769Z,47904
2017-06-30T07:58:08.991Z,70880
2017-06-30T07:58:55.773Z,78368
2017-06-30T08:03:09.147Z,102560
2017-06-30T08:05:32.488Z,50112
2017-06-30T08:06:32.491Z,53504
2017-06-30T08:09:17.645Z,35136
2017-06-30T08:10:46.146Z,50624
2017-06-30T08:11:59.432Z,74176
2017-06-30T08:13:00.230Z,60384
2017-06-30T08:13:18.627Z,61152
2017-06-30T08:14:34.025Z,91296
2017-06-30T08:15:31.996Z,109952
2017-06-30T08:16:46.795Z,102368
2017-06-30T08:18:57.365Z,123296
2017-06-30T08:19:55.330Z,122080
2017-06-30T08:20:54.715Z,52768
2017-06-30T08:30:14.173Z,70848
2017-06-30T08:30:57.677Z,101536
2017-06-30T08:31:57.656Z,58464
2017-06-30T08:32:57.656Z,100768
2017-06-30T08:33:57.339Z,48000
2017-06-30T08:34:57.631Z,41792
2017-06-30T08:35:57.627Z,54400
2017-06-30T08:36:57.612Z,49280
2017-06-30T08:37:57.591Z,62016
2017-06-30T08:38:57.597Z,104288
2017-06-30T08:39:57.578Z,88544
2017-06-30T08:40:57.567Z,55456
2017-06-30T08:41:57.557Z,52192
2017-06-30T08:42:57.559Z,63072
2017-06-30T08:43:57.552Z,56640
2017-06-30T08:44:57.543Z,129984
2017-06-30T08:45:57.532Z,132512
2017-06-30T08:46:57.513Z,57792
2017-06-30T08:47:57.215Z,38176
2017-06-30T08:48:57.189Z,48864
2017-06-30T08:49:57.489Z,60960
2017-06-30T08:50:57.483Z,50112
2017-06-30T08:51:57.473Z,41792
2017-06-30T08:52:57.462Z,38816
2017-06-30T08:53:57.449Z,46816
2017-06-30T08:54:57.441Z,69120
2017-06-30T08:55:57.432Z,65504
2017-06-30T08:56:57.422Z,121120
2017-06-30T08:57:57.480Z,95424
2017-06-30T08:58:57.108Z,124352
2017-06-30T08:59:57.398Z,82656
2017-06-30T09:00:57.378Z,171616
2017-06-30T09:01:57.367Z,65952
2017-06-30T09:02:57.360Z,72096
2017-06-30T09:03:57.348Z,98400
2017-06-30T09:04:57.340Z,115104
2017-06-30T09:05:57.351Z,124672
2017-06-30T09:06:57.333Z,105024
2017-06-30T09:07:57.318Z,156096
2017-06-30T09:08:57.007Z,120352
2017-06-30T09:09:57.300Z,110048
2017-06-30T09:10:57.283Z,39904
2017-06-30T09:11:57.273Z,41088
2017-06-30T09:12:57.283Z,36960
2017-06-30T09:13:57.275Z,31968
2017-06-30T09:14:57.241Z,33408
2017-06-30T09:15:57.247Z,41632
2017-06-30T09:16:57.232Z,60736
2017-06-30T09:17:57.225Z,61856
2017-06-30T09:18:56.926Z,63648
2017-06-30T09:19:57.207Z,88608
2017-06-30T09:20:57.196Z,150656
2017-06-30T09:21:57.186Z,68224
2017-06-30T09:22:57.176Z,58080
2017-06-30T09:23:57.167Z,98336
2017-06-30T09:24:57.150Z,54144
2017-06-30T09:25:57.136Z,45888
2017-06-30T09:26:56.837Z,48352
2017-06-30T09:27:57.145Z,37216
2017-06-30T09:28:56.823Z,39936
2017-06-30T09:29:57.108Z,54976
2017-06-30T09:30:57.104Z,147232
2017-06-30T09:31:57.085Z,72544
2017-06-30T09:32:57.072Z,77600
2017-06-30T09:33:57.064Z,136768
2017-06-30T09:34:57.052Z,60544
2017-06-30T09:35:57.036Z,62880
2017-06-30T09:36:57.023Z,115840
2017-06-30T09:37:57.022Z,168352
2017-06-30T09:38:56.695Z,158112
2017-06-30T09:39:56.999Z,116736
2017-06-30T09:40:56.702Z,69184
2017-06-30T09:41:56.969Z,120480
2017-06-30T09:42:56.968Z,149856
2017-06-30T09:43:56.653Z,92416
2017-06-30T09:44:56.650Z,124736
2017-06-30T09:45:56.939Z,55968
2017-06-30T09:46:56.928Z,57056
2017-06-30T09:47:56.913Z,66592
2017-06-30T09:48:56.600Z,67936
2017-06-30T09:49:56.892Z,73024
2017-06-30T09:50:56.584Z,100608
2017-06-30T09:51:56.568Z,62432
2017-06-30T09:52:56.560Z,96256
2017-06-30T09:53:56.555Z,140864
2017-06-30T09:54:56.548Z,52128
2017-06-30T09:55:56.532Z,72320
2017-06-30T09:56:56.522Z,39456
2017-06-30T09:57:56.810Z,30368
2017-06-30T09:58:56.806Z,35648
2017-06-30T09:59:56.800Z,38272
2017-06-30T10:00:56.478Z,38400
2017-06-30T10:01:56.762Z,61792
2017-06-30T10:02:56.768Z,150496
2017-06-30T10:03:56.757Z,130240
2017-06-30T10:04:56.734Z,124288
2017-06-30T10:05:56.719Z,161120
2017-06-30T10:06:56.419Z,54944
2017-06-30T10:07:56.716Z,59488
2017-06-30T10:08:56.394Z,75616
2017-06-30T10:09:56.690Z,71712
2017-06-30T10:10:56.683Z,56672
2017-06-30T10:11:56.669Z,148960
2017-06-30T10:12:56.653Z,73056
2017-06-30T10:13:56.648Z,66528
2017-06-30T10:14:56.628Z,92064
2017-06-30T10:15:56.321Z,76896
2017-06-30T10:16:56.312Z,61312
2017-06-30T10:17:56.595Z,120704
2017-06-30T10:18:56.600Z,134848
2017-06-30T10:19:55.970Z,160288
2017-06-30T10:20:56.567Z,76640
2017-06-30T10:21:56.556Z,57312
2017-06-30T10:22:56.542Z,91776
2017-06-30T10:23:56.579Z,66528
2017-06-30T10:24:56.525Z,92704
2017-06-30T10:25:56.510Z,168256
2017-06-30T10:26:56.490Z,83712
2017-06-30T10:27:56.474Z,139648
2017-06-30T10:28:56.478Z,67136
2017-06-30T10:29:56.463Z,78880
2017-06-30T10:30:56.458Z,170528
2017-06-30T10:31:56.448Z,70528
2017-06-30T10:32:56.429Z,177344
2017-06-30T10:33:56.410Z,82208
2017-06-30T10:34:56.110Z,43872
2017-06-30T10:35:56.390Z,77600
2017-06-30T10:36:56.375Z,66176
2017-06-30T10:37:56.360Z,78464
2017-06-30T10:38:56.057Z,123136
2017-06-30T10:39:56.041Z,69344
2017-06-30T10:40:56.019Z,76800
2017-06-30T10:41:56.325Z,68416
2017-06-30T10:42:56.314Z,92448
2017-06-30T10:43:56.301Z,73024
2017-06-30T10:44:55.983Z,81248
2017-06-30T10:45:56.284Z,70304
2017-06-30T10:46:55.960Z,104000
2017-06-30T10:47:56.252Z,123808
2017-06-30T10:48:55.940Z,106784
2017-06-30T10:49:56.233Z,71968
2017-06-30T10:50:55.914Z,54784
2017-06-30T10:51:55.913Z,106400
2017-06-30T10:52:56.203Z,53696
2017-06-30T10:53:55.582Z,51968
2017-06-30T10:54:56.179Z,70912
2017-06-30T10:55:55.565Z,93312
2017-06-30T10:56:55.856Z,64128
2017-06-30T10:57:55.845Z,47008
2017-06-30T10:58:55.837Z,59808
2017-06-30T10:59:56.130Z,65728
2017-06-30T11:00:55.809Z,75520
2017-06-30T11:01:55.805Z,107520
2017-06-30T11:02:56.097Z,58112
2017-06-30T11:03:55.777Z,51200
2017-06-30T11:04:56.068Z,46784
2017-06-30T11:05:56.047Z,46304
2017-06-30T11:06:56.064Z,48736
2017-06-30T11:07:56.031Z,49376
2017-06-30T11:08:56.020Z,68064
2017-06-30T11:09:56.008Z,42880
2017-06-30T11:10:56.001Z,27392
2017-06-30T11:11:55.991Z,25824
2017-06-30T11:12:55.989Z,31328
2017-06-30T11:13:55.955Z,48448
2017-06-30T11:14:55.956Z,50592
2017-06-30T11:15:55.936Z,47904
2017-06-30T11:16:55.928Z,154048
2017-06-30T11:17:55.616Z,51296
2017-06-30T11:18:55.905Z,156704
2017-06-30T11:19:55.905Z,93728
2017-06-30T11:20:55.897Z,65248
2017-06-30T11:21:55.869Z,145568
2017-06-30T11:22:55.862Z,144320
2017-06-30T11:23:55.544Z,40704
2017-06-30T11:24:55.832Z,35488
2017-06-30T11:25:55.513Z,52352
2017-06-30T11:26:55.824Z,48672
2017-06-30T11:27:55.802Z,51904
2017-06-30T11:28:55.797Z,80320
2017-06-30T11:29:55.177Z,100896
2017-06-30T11:30:55.778Z,142208
2017-06-30T11:31:55.761Z,64096
2017-06-30T11:32:55.755Z,153088
2017-06-30T11:33:55.741Z,57248
2017-06-30T11:34:55.736Z,152896
2017-06-30T11:35:55.737Z,122144
2017-06-30T11:36:55.714Z,140512
2017-06-30T11:37:55.703Z,131232
2017-06-30T11:38:55.682Z,149792
2017-06-30T11:39:55.676Z,65248
2017-06-30T11:40:55.677Z,63168
2017-06-30T11:41:55.661Z,58624
2017-06-30T11:42:55.659Z,162816
2017-06-30T11:43:55.627Z,144448
2017-06-30T11:44:55.622Z,158944
2017-06-30T11:45:55.609Z,65728
2017-06-30T11:46:55.608Z,57024
2017-06-30T11:47:55.597Z,91648
2017-06-30T11:48:55.581Z,167744
2017-06-30T11:49:55.578Z,37760
2017-06-30T11:50:55.575Z,36768
2017-06-30T11:51:56.573Z,43232
2017-06-30T11:53:26.249Z,40896
2017-06-30T11:54:40.584Z,45952
2017-06-30T11:56:13.471Z,45376
2017-06-30T12:00:22.343Z,62688
2017-06-30T12:02:23.335Z,51104
2017-06-30T12:04:29.797Z,37056
2017-06-30T12:08:04.189Z,28416
2017-06-30T12:11:22.942Z,13292
2017-06-30T12:12:22.265Z,10908
2017-06-30T12:13:23.056Z,8716
2017-06-30T12:19:41.073Z,8348
2017-06-30T12:21:50.917Z,11868
2017-06-30T12:27:51.394Z,36768
2017-06-30T12:31:59.504Z,35328
2017-06-30T12:32:59.282Z,35744
2017-06-30T12:35:58.642Z,137216
2017-06-30T12:36:45.641Z,71712
2017-06-30T12:37:59.426Z,56640
2017-06-30T12:41:49.700Z,36960
2017-06-30T12:43:04.901Z,26016
2017-06-30T12:44:04.553Z,19744
2017-06-30T12:46:31.864Z,18208
2017-06-30T12:47:00.426Z,18752
2017-06-30T12:48:28.207Z,20864
2017-06-30T12:52:13.154Z,11356
2017-06-30T12:53:12.525Z,12536
2017-06-30T13:01:09.922Z,31648
2017-06-30T13:02:40.679Z,33120
2017-06-30T13:04:39.741Z,37248
2017-06-30T13:07:09.444Z,32160
2017-06-30T13:08:36.164Z,28128
2017-06-30T13:11:13.110Z,18240
2017-06-30T13:14:00.878Z,8660
2017-06-30T13:20:32.601Z,6612
2017-06-30T13:25:51.064Z,19552
2017-06-30T13:28:05.038Z,16796
2017-06-30T13:29:05.221Z,21568
2017-06-30T13:30:19.422Z,24512
2017-06-30T13:30:46.623Z,25856
2017-06-30T13:33:14.141Z,16932
2017-06-30T13:33:49.586Z,14684
2017-06-30T13:38:33.679Z,16088
2017-06-30T13:40:28.647Z,12828
2017-06-30T13:43:43.377Z,11132
2017-06-30T13:44:14.955Z,11888
2017-06-30T13:45:30.756Z,12920
2017-06-30T13:46:57.541Z,12804
2017-06-30T13:47:15.115Z,12772
2017-06-30T13:48:29.922Z,15104
2017-06-30T13:49:29.899Z,16060
2017-06-30T13:50:29.678Z,15116
2017-06-30T13:51:57.273Z,12784
2017-06-30T13:54:27.812Z,10708
2017-06-30T13:56:52.369Z,12432
2017-06-30T13:57:53.223Z,12736
2017-06-30T13:58:54.367Z,12212
2017-06-30T13:59:39.139Z,11072
2017-06-30T14:00:25.526Z,10204
2017-06-30T14:02:48.243Z,6456
2017-06-30T14:04:01.444Z,5228
2017-06-30T14:08:34.664Z,4164
2017-06-30T14:10:47.746Z,3812
2017-06-30T14:11:34.394Z,3440
2017-06-30T14:12:47.916Z,3848
2017-06-30T14:13:34.367Z,4392
2017-06-30T14:16:48.925Z,3992
2017-06-30T14:18:02.448Z,4340
2017-06-30T14:18:48.243Z,3908
2017-06-30T14:20:01.408Z,4100
2017-06-30T14:21:00.992Z,4752
2017-06-30T14:26:33.492Z,3976
2017-06-30T14:30:15.863Z,7416
2017-06-30T14:33:25.381Z,6256
2017-06-30T14:36:11.930Z,5044
2017-06-30T14:37:44.106Z,5144
2017-06-30T14:40:43.259Z,6592
2017-06-30T14:41:56.832Z,6012
2017-06-30T14:43:42.595Z,5688
2017-06-30T14:44:57.137Z,6184
2017-06-30T14:49:10.515Z,8512
2017-06-30T14:52:24.264Z,12740
2017-06-30T14:52:43.254Z,12928
2017-06-30T14:53:56.235Z,15760
2017-06-30T14:56:10.604Z,21952
2017-06-30T14:58:09.760Z,41088
2017-06-30T14:59:10.961Z,36448
2017-06-30T15:00:09.924Z,28800
2017-06-30T15:00:57.303Z,28768
2017-06-30T15:01:57.311Z,27616
2017-06-30T15:03:41.858Z,29888
2017-06-30T15:07:10.892Z,36768
2017-06-30T15:10:10.178Z,48736
2017-06-30T15:10:47.445Z,50560
2017-06-30T15:12:56.748Z,34368
2017-06-30T15:14:44.091Z,30336
2017-06-30T15:17:55.658Z,70208
2017-06-30T15:19:43.969Z,123296
2017-06-30T15:20:58.090Z,124992
2017-06-30T15:22:01.000Z,126560
2017-06-30T15:24:19.344Z,100960
2017-06-30T15:24:49.901Z,98176
2017-06-30T15:25:51.082Z,94784
2017-06-30T15:26:50.101Z,82880
2017-06-30T15:27:51.690Z,69984
2017-06-30T15:29:50.707Z,38816
2017-06-30T15:31:19.646Z,26016
2017-06-30T15:33:18.817Z,23808
2017-06-30T15:37:06.029Z,22912
2017-06-30T15:37:51.130Z,23296
2017-06-30T15:39:05.118Z,24608
2017-06-30T15:40:03.516Z,24448
2017-06-30T15:41:04.303Z,24320
2017-06-30T15:43:05.095Z,24896
2017-06-30T15:44:03.852Z,25280
2017-06-30T15:45:04.865Z,24544
2017-06-30T15:46:04.041Z,24000
2017-06-30T15:48:03.991Z,26848
2017-06-30T15:49:06.597Z,35200
2017-06-30T15:50:05.897Z,53952
2017-06-30T15:51:04.641Z,65248
2017-06-30T15:53:32.764Z,72736
2017-06-30T15:53:50.805Z,70624
2017-06-30T15:56:50.497Z,54112
2017-06-30T15:58:19.305Z,55232
2017-06-30T16:00:04.528Z,61408
2017-06-30T16:00:50.859Z,60384
2017-06-30T16:03:04.234Z,55104
2017-06-30T16:03:50.719Z,54912
2017-06-30T16:05:03.606Z,56096
2017-06-30T16:06:18.400Z,54752
2017-06-30T16:07:05.174Z,53664
2017-06-30T16:07:51.633Z,52096
2017-06-30T16:09:06.147Z,51712
2017-06-30T16:10:04.156Z,51488
2017-06-30T16:10:51.193Z,47488
2017-06-30T16:12:04.641Z,46272
2017-06-30T16:13:53.763Z,12452
2017-06-30T16:15:03.688Z,14688
2017-06-30T16:17:04.680Z,13812
2017-06-30T16:17:49.859Z,15836
2017-06-30T16:19:52.628Z,24000
2017-06-30T16:21:04.627Z,28736
2017-06-30T16:22:03.801Z,21600
2017-06-30T16:23:02.987Z,36064
2017-06-30T16:24:03.176Z,38848
2017-06-30T16:24:49.775Z,42272
2017-06-30T16:26:05.032Z,45888
2017-06-30T16:27:19.431Z,50656
2017-06-30T16:28:31.743Z,47168
2017-06-30T16:28:55.788Z,43488
2017-06-30T16:30:49.501Z,40128
2017-06-30T16:32:05.362Z,39328
2017-06-30T16:32:54.780Z,39040
2017-06-30T16:33:51.240Z,42304
2017-06-30T16:34:51.446Z,40992
2017-06-30T16:37:03.629Z,42304
2017-06-30T16:37:51.818Z,41120
2017-06-30T16:38:52.452Z,40960
2017-06-30T16:40:50.768Z,37216
2017-06-30T16:42:07.197Z,28064
2017-06-30T16:42:48.546Z,36160
2017-06-30T16:43:51.329Z,18368
2017-06-30T16:44:51.220Z,17568
2017-06-30T16:45:48.309Z,17696
2017-06-30T16:47:03.980Z,15912
2017-06-30T16:49:31.497Z,14740
2017-06-30T16:50:13.041Z,14532
2017-06-30T16:51:01.839Z,14356
2017-06-30T16:52:12.888Z,13744
2017-06-30T16:53:12.791Z,13188
2017-06-30T16:54:01.385Z,13364
2017-06-30T16:55:11.968Z,15500
2017-06-30T16:55:58.653Z,15672
2017-06-30T16:58:12.754Z,21536
2017-06-30T17:00:59.359Z,18784
2017-06-30T17:02:12.801Z,17344
2017-06-30T17:03:57.459Z,15364
2017-06-30T17:06:01.537Z,13412
2017-06-30T17:07:13.840Z,12344
2017-06-30T17:07:57.801Z,11892
2017-06-30T17:08:59.000Z,11648
2017-06-30T17:10:00.239Z,11644
2017-06-30T17:11:11.367Z,10792
2017-06-30T17:12:58.199Z,8648
2017-06-30T17:13:58.940Z,6668
2017-06-30T17:15:12.939Z,4572
2017-06-30T17:17:11.619Z,2692
2017-06-30T17:17:57.318Z,2368
2017-06-30T17:18:59.340Z,2048
2017-06-30T17:19:58.257Z,1896
2017-06-30T17:20:58.244Z,1844
2017-06-30T17:21:58.448Z,1776
2017-06-30T17:25:35.165Z,1824
2017-06-30T17:26:34.735Z,1840
2017-06-30T17:29:48.706Z,2340
2017-06-30T17:30:28.842Z,2260
2017-06-30T17:32:16.431Z,2344
2017-06-30T17:33:16.672Z,2596
2017-06-30T17:34:29.195Z,2872
2017-06-30T17:38:32.384Z,4468
2017-06-30T17:40:29.323Z,4608
2017-06-30T17:41:14.491Z,4288
2017-06-30T17:43:30.104Z,3332
2017-06-30T17:44:15.719Z,3148
2017-06-30T17:45:30.933Z,2820
2017-06-30T17:46:30.445Z,2432
2017-06-30T17:49:15.801Z,1184
2017-06-30T17:50:42.790Z,776
2017-06-30T17:51:44.193Z,632
2017-06-30T17:52:14.577Z,588
2017-06-30T17:53:57.761Z,524
2017-06-30T17:54:29.337Z,516
2017-06-30T17:55:29.935Z,520
2017-06-30T17:56:29.509Z,560
2017-06-30T17:57:19.341Z,600
2017-06-30T17:58:43.499Z,684
2017-06-30T18:00:30.138Z,792
2017-06-30T18:01:16.277Z,848
2017-06-30T18:02:14.866Z,872
2017-06-30T18:03:43.326Z,896
2017-06-30T18:04:28.606Z,860
2017-06-30T18:06:29.383Z,716
2017-06-30T18:08:29.264Z,664
2017-06-30T18:09:44.365Z,660
2017-06-30T18:10:30.541Z,660
2017-06-30T18:11:32.821Z,684
2017-06-30T18:12:16.183Z,696
2017-06-30T18:14:28.368Z,792
2017-06-30T18:15:32.851Z,968
2017-06-30T18:17:16.049Z,1240
2017-06-30T18:19:30.736Z,1336
2017-06-30T18:20:15.013Z,1468
2017-06-30T18:21:29.863Z,1448
2017-06-30T18:23:28.766Z,1984
2017-06-30T18:24:16.980Z,2116
2017-06-30T18:26:42.219Z,2336
2017-06-30T18:27:43.523Z,2292
2017-06-30T18:31:29.457Z,1568
2017-06-30T18:32:29.714Z,1384
2017-06-30T18:33:30.242Z,1236
2017-06-30T18:34:28.205Z,1120
2017-06-30T18:35:28.401Z,976
2017-06-30T18:36:28.587Z,932
2017-06-30T18:37:16.112Z,940
2017-06-30T18:38:29.373Z,888
2017-06-30T18:39:43.962Z,856
2017-06-30T18:40:18.152Z,836
2017-06-30T18:41:43.528Z,748
2017-06-30T18:42:14.671Z,748
2017-06-30T18:43:15.301Z,652
2017-06-30T18:44:13.657Z,596
2017-06-30T18:45:29.464Z,596
2017-06-30T18:47:28.222Z,540
2017-06-30T18:49:15.254Z,540
2017-06-30T18:50:27.775Z,512
2017-06-30T18:51:43.580Z,504
2017-06-30T18:54:15.825Z,500
2017-06-30T18:55:43.709Z,472
2017-06-30T18:56:14.486Z,464
2017-06-30T18:57:14.468Z,436
2017-06-30T18:58:13.254Z,412
2017-06-30T18:59:17.646Z,388
2017-06-30T19:01:27.503Z,352
2017-06-30T19:03:42.391Z,292
2017-06-30T19:04:14.937Z,276
2017-06-30T19:05:15.202Z,252
2017-06-30T19:06:15.013Z,240
2017-06-30T19:07:14.940Z,228
2017-06-30T19:09:15.521Z,164
2017-06-30T19:10:28.494Z,128
2017-06-30T19:11:14.680Z,104
2017-06-30T19:13:14.441Z,80
2017-06-30T19:15:30.057Z,64
2017-06-30T19:16:14.390Z,64
2017-06-30T19:17:30.813Z,60
2017-06-30T19:18:15.276Z,60
2017-06-30T19:19:13.847Z,56
2017-06-30T19:20:16.139Z,60
2017-06-30T19:21:14.193Z,56
2017-06-30T19:22:13.397Z,52
2017-06-30T19:23:14.706Z,44
2017-06-30T19:24:14.286Z,36
2017-06-30T19:25:15.135Z,28
2017-06-30T19:27:42.916Z,16
2017-06-30T19:29:14.479Z,16
2017-06-30T19:30:13.289Z,16
2017-06-30T19:31:14.851Z,12
2017-06-30T19:32:28.784Z,12
2017-06-30T19:33:28.223Z,12
2017-06-30T19:34:13.333Z,12